Time;durP1;ratioP1;P1;durP2;ratioP2;P2;SDS_P1;SDS_P2;PMS_P1;PMS_P2;Temp;Humidity;BMP_temperature;BMP_pressure;BME280_temperature;BME280_humidity;BME280_pressure;Samples;Min_cycle;Max_cycle;Signal;HPM_P1;HPM_P2
2023/10/22 00:01:45;;;;;;;4.43;0.70;;;12.30;99.90;;;;;;5010132;28;19941;-72
2023/10/22 00:04:11;;;;;;;2.90;0.77;;;12.30;99.90;;;;;;5005616;28;20045;-72
2023/10/22 00:06:36;;;;;;;6.33;0.97;;;12.40;99.90;;;;;;5013571;28;20079;-72
2023/10/22 00:09:02;;;;;;;4.43;0.87;;;12.40;99.90;;;;;;5011819;28;20273;-72
2023/10/22 00:11:28;;;;;;;1.17;0.57;;;12.40;99.90;;;;;;4989446;28;20287;-72
2023/10/22 00:13:53;;;;;;;4.37;1.13;;;12.40;99.90;;;;;;5003986;28;20310;-72
2023/10/22 00:16:19;;;;;;;2.43;0.83;;;12.40;99.90;;;;;;5007732;28;20124;-72
2023/10/22 00:18:44;;;;;;;2.70;0.70;;;12.40;99.90;;;;;;4986154;28;20045;-72
2023/10/22 00:21:10;;;;;;;3.97;0.50;;;12.40;99.90;;;;;;5007699;28;20184;-72
2023/10/22 00:23:36;;;;;;;5.03;0.70;;;12.50;99.90;;;;;;5012689;28;20404;-72
2023/10/22 00:26:02;;;;;;;2.65;0.60;;;12.50;99.90;;;;;;5011430;28;20052;-72
2023/10/22 00:28:27;;;;;;;1.77;0.52;;;12.50;99.90;;;;;;5004364;28;20045;-72
2023/10/22 00:30:53;;;;;;;3.30;0.60;;;12.40;99.90;;;;;;5008765;28;20050;-72
2023/10/22 00:33:19;;;;;;;4.60;0.52;;;12.50;99.90;;;;;;5013084;28;20350;-72
2023/10/22 00:35:55;;;;;;;2.57;0.73;;;12.40;99.90;;;;;;5007602;28;20051;-72
2023/10/22 00:38:20;;;;;;;4.47;0.47;;;12.40;99.90;;;;;;5014037;28;20060;-72
2023/10/22 00:40:46;;;;;;;4.17;0.70;;;12.50;99.90;;;;;;5014280;28;20494;-72
2023/10/22 00:43:11;;;;;;;2.33;0.50;;;12.40;99.90;;;;;;5000246;28;20295;-72
2023/10/22 00:45:38;;;;;;;2.97;0.60;;;12.50;99.90;;;;;;5015692;28;20041;-73
2023/10/22 00:48:11;;;;;;;2.17;0.52;;;12.50;99.90;;;;;;5018353;28;20553;-72
2023/10/22 00:50:40;;;;;;;3.47;0.95;;;12.50;99.90;;;;;;5001628;28;20060;-72
2023/10/22 00:53:08;;;;;;;6.32;0.65;;;12.50;99.90;;;;;;5010337;28;20037;-72
2023/10/22 00:55:39;;;;;;;2.63;0.60;;;12.50;99.90;;;;;;5011229;28;20121;-72
2023/10/22 00:58:05;;;;;;;1.60;0.50;;;12.50;99.90;;;;;;5013646;28;20045;-72
2023/10/22 01:00:31;;;;;;;;;;;12.50;99.90;;;;;;5010032;28;20502;-72
2023/10/22 01:02:58;;;;;;;2.05;0.60;;;12.50;99.90;;;;;;5015860;28;19921;-72
2023/10/22 01:05:23;;;;;;;1.08;0.30;;;12.50;99.90;;;;;;4994943;28;20056;-72
2023/10/22 01:07:49;;;;;;;5.40;0.67;;;12.50;99.90;;;;;;5009027;28;20422;-72
2023/10/22 01:10:14;;;;;;;3.33;0.90;;;12.50;99.90;;;;;;5014272;28;20198;-72
2023/10/22 01:12:40;;;;;;;6.47;0.73;;;12.40;99.90;;;;;;5007757;28;20775;-72
2023/10/22 01:15:06;;;;;;;3.03;0.60;;;12.40;99.90;;;;;;5009650;28;20103;-72
2023/10/22 01:17:32;;;;;;;1.20;0.43;;;12.30;99.90;;;;;;4991092;28;20037;-72
2023/10/22 01:19:58;;;;;;;4.30;0.63;;;12.30;99.90;;;;;;5012178;28;20070;-72
2023/10/22 01:22:23;;;;;;;2.70;0.53;;;12.20;99.90;;;;;;5007033;28;20096;-72
2023/10/22 01:24:49;;;;;;;2.83;0.60;;;12.20;99.90;;;;;;5010364;28;20041;-72
2023/10/22 01:27:15;;;;;;;4.50;0.97;;;12.10;99.90;;;;;;5009422;28;20505;-72
2023/10/22 01:29:40;;;;;;;2.88;0.75;;;12.10;99.90;;;;;;5009787;28;20298;-72
2023/10/22 01:32:06;;;;;;;7.20;1.13;;;12.10;99.90;;;;;;5012816;28;20465;-72
2023/10/22 01:34:32;;;;;;;2.27;0.50;;;12.10;99.90;;;;;;5001387;28;20373;-72
2023/10/22 01:37:02;;;;;;;2.67;0.50;;;12.00;99.90;;;;;;5014132;28;20053;-72
2023/10/22 01:39:28;;;;;;;3.55;0.60;;;12.00;99.90;;;;;;5009864;28;20107;-72
2023/10/22 01:41:54;;;;;;;3.13;0.50;;;11.90;99.90;;;;;;5012745;28;20144;-72
2023/10/22 01:44:19;;;;;;;2.67;0.60;;;11.90;99.90;;;;;;5009425;28;20113;-72
2023/10/22 01:46:45;;;;;;;1.27;0.43;;;11.90;99.90;;;;;;5011979;28;20041;-72
2023/10/22 01:49:11;;;;;;;1.60;0.70;;;11.90;99.90;;;;;;5012396;28;20048;-72
2023/10/22 01:51:37;;;;;;;4.18;0.50;;;11.90;99.90;;;;;;5011873;28;20041;-71
2023/10/22 01:54:05;;;;;;;2.88;0.50;;;11.80;99.90;;;;;;5017973;28;20118;-71
2023/10/22 01:56:30;;;;;;;5.03;1.10;;;11.80;99.90;;;;;;5013943;28;20470;-72
2023/10/22 01:58:56;;;;;;;1.57;0.60;;;11.80;99.90;;;;;;5013647;28;20038;-71
2023/10/22 02:01:22;;;;;;;2.23;0.60;;;11.80;99.90;;;;;;5008992;28;20476;-71
2023/10/22 02:03:48;;;;;;;1.80;0.57;;;11.80;99.90;;;;;;5007193;28;20135;-71
2023/10/22 02:06:14;;;;;;;1.50;0.70;;;11.80;99.90;;;;;;5010944;28;20038;-71
2023/10/22 02:08:40;;;;;;;;;;;11.80;99.90;;;;;;5009866;28;20108;-71
2023/10/22 02:11:06;;;;;;;1.90;0.80;;;11.80;99.90;;;;;;5015378;28;19980;-71
2023/10/22 02:13:31;;;;;;;2.63;0.40;;;11.70;99.90;;;;;;5011138;28;20042;-71
2023/10/22 02:15:57;;;;;;;1.77;1.00;;;11.80;99.90;;;;;;5010597;28;20046;-71
2023/10/22 02:18:23;;;;;;;1.85;0.93;;;11.70;99.90;;;;;;5018250;28;20037;-71
2023/10/22 02:20:59;;;;;;;4.20;0.70;;;11.80;99.90;;;;;;5012485;28;20206;-71
2023/10/22 02:23:25;;;;;;;0.70;0.40;;;11.80;99.90;;;;;;5010564;28;20053;-71
2023/10/22 02:25:51;;;;;;;;;;;11.70;99.90;;;;;;5018171;28;20049;-71
2023/10/22 02:28:17;;;;;;;1.48;0.70;;;11.80;99.90;;;;;;5015245;28;19924;-71
2023/10/22 02:30:49;;;;;;;2.92;0.70;;;11.70;99.90;;;;;;5016992;28;20065;-71
2023/10/22 02:33:15;;;;;;;5.22;1.27;;;11.70;99.90;;;;;;5016020;28;20050;-71
2023/10/22 02:35:42;;;;;;;2.90;0.68;;;11.70;99.90;;;;;;4996960;28;20095;-71
2023/10/22 02:38:08;;;;;;;4.90;1.10;;;11.70;99.90;;;;;;5016658;28;20129;-71
2023/10/22 02:40:37;;;;;;;0.90;0.50;;;11.80;99.90;;;;;;5016990;28;20042;-71
2023/10/22 02:43:03;;;;;;;1.73;0.73;;;11.70;99.90;;;;;;5015578;28;20482;-71
2023/10/22 02:45:29;;;;;;;3.70;0.98;;;11.80;99.90;;;;;;5012673;28;20069;-71
2023/10/22 02:48:00;;;;;;;3.50;0.50;;;11.80;99.90;;;;;;5009998;28;20172;-71
2023/10/22 02:50:26;;;;;;;2.67;0.50;;;11.80;99.90;;;;;;5015733;28;20583;-71
2023/10/22 02:52:53;;;;;;;2.40;0.50;;;11.80;99.90;;;;;;5013276;28;20299;-71
2023/10/22 02:55:19;;;;;;;0.90;0.50;;;11.80;99.90;;;;;;5014058;28;20453;-71
2023/10/22 02:57:45;;;;;;;2.17;0.50;;;11.80;99.90;;;;;;5017487;28;20052;-71
2023/10/22 03:00:11;;;;;;;3.37;0.50;;;11.90;99.90;;;;;;5013845;28;20398;-71
2023/10/22 03:02:37;;;;;;;1.73;0.55;;;11.80;99.90;;;;;;5013198;28;20057;-71
2023/10/22 03:05:03;;;;;;;1.73;0.70;;;11.80;99.90;;;;;;5009659;28;20038;-71
2023/10/22 03:07:29;;;;;;;1.80;0.63;;;11.80;99.90;;;;;;5011177;28;20510;-71
2023/10/22 03:09:55;;;;;;;3.60;0.70;;;11.80;99.90;;;;;;5011504;28;20054;-71
2023/10/22 03:12:20;;;;;;;3.47;1.10;;;11.90;99.90;;;;;;5013482;28;20049;-71
2023/10/22 03:14:48;;;;;;;3.28;0.90;;;11.80;99.90;;;;;;5014943;28;20049;-71
2023/10/22 03:17:13;;;;;;;2.53;0.82;;;11.90;99.90;;;;;;5013736;28;20133;-71
2023/10/22 03:19:39;;;;;;;1.98;0.50;;;11.80;99.90;;;;;;5010929;28;20039;-71
2023/10/22 03:22:05;;;;;;;1.60;0.60;;;11.80;99.90;;;;;;5016515;28;20046;-71
2023/10/22 03:24:30;;;;;;;1.20;0.53;;;11.80;99.90;;;;;;5018112;28;20259;-71
2023/10/22 03:26:57;;;;;;;5.20;0.77;;;11.90;99.90;;;;;;5016340;28;20637;-71
2023/10/22 03:29:22;;;;;;;1.17;0.55;;;11.80;99.90;;;;;;5007625;28;20522;-71
2023/10/22 03:31:48;;;;;;;1.80;0.90;;;11.80;99.90;;;;;;4993756;28;20084;-71
2023/10/22 03:34:14;;;;;;;3.20;0.80;;;11.80;99.90;;;;;;5011969;28;20164;-71
2023/10/22 03:36:40;;;;;;;2.58;0.80;;;11.80;99.90;;;;;;5014548;28;20080;-71
2023/10/22 03:39:06;;;;;;;1.60;0.80;;;11.90;99.90;;;;;;5017972;28;20066;-71
2023/10/22 03:41:33;;;;;;;0.90;0.50;;;11.80;99.90;;;;;;5011866;28;20370;-71
2023/10/22 03:43:59;;;;;;;2.17;0.90;;;11.80;99.90;;;;;;5015087;28;20046;-71
2023/10/22 03:46:24;;;;;;;1.33;0.65;;;11.80;99.90;;;;;;5012050;28;20133;-71
2023/10/22 03:48:50;;;;;;;2.80;1.00;;;11.90;99.90;;;;;;5014863;28;20127;-72
2023/10/22 03:51:16;;;;;;;1.07;0.83;;;11.90;99.90;;;;;;5018330;28;20037;-72
2023/10/22 03:53:41;;;;;;;1.93;0.80;;;11.90;99.90;;;;;;5010724;28;20349;-71
2023/10/22 03:56:07;;;;;;;1.45;0.70;;;11.90;99.90;;;;;;5008053;28;20494;-71
2023/10/22 03:58:33;;;;;;;2.35;0.70;;;11.90;99.90;;;;;;5011498;28;20104;-72
2023/10/22 04:00:59;;;;;;;1.77;0.55;;;11.90;99.90;;;;;;5013773;28;20041;-72
2023/10/22 04:03:24;;;;;;;1.63;0.95;;;11.90;99.90;;;;;;5014548;28;20078;-71
2023/10/22 04:05:55;;;;;;;0.87;0.67;;;11.90;99.90;;;;;;5012218;28;20053;-71
2023/10/22 04:08:22;;;;;;;2.42;0.57;;;11.90;99.90;;;;;;5007222;28;20195;-71
2023/10/22 04:10:48;;;;;;;2.03;0.63;;;11.90;99.90;;;;;;5017211;28;20448;-71
2023/10/22 04:13:13;;;;;;;1.43;0.60;;;11.90;99.90;;;;;;5016241;28;20037;-72
2023/10/22 04:15:39;;;;;;;1.02;0.52;;;12.00;99.90;;;;;;5020309;28;20290;-71
2023/10/22 04:18:05;;;;;;;2.70;0.67;;;12.00;99.90;;;;;;5015748;28;20050;-71
2023/10/22 04:20:34;;;;;;;1.70;0.80;;;12.00;99.90;;;;;;5018043;28;20107;-72
2023/10/22 04:23:00;;;;;;;1.05;0.47;;;12.00;99.90;;;;;;5020663;28;20129;-71
2023/10/22 04:25:27;;;;;;;1.52;0.63;;;12.00;99.90;;;;;;5016587;28;20551;-71
2023/10/22 04:27:52;;;;;;;1.42;0.80;;;12.00;99.90;;;;;;5014495;28;20050;-71
2023/10/22 04:30:18;;;;;;;2.10;0.83;;;12.00;99.90;;;;;;5020005;28;20029;-72
2023/10/22 04:32:44;;;;;;;1.10;0.80;;;12.00;99.90;;;;;;5013879;28;20315;-71
2023/10/22 04:35:09;;;;;;;2.50;1.20;;;12.00;99.90;;;;;;5020704;28;20632;-71
2023/10/22 04:37:35;;;;;;;2.67;1.30;;;12.00;99.90;;;;;;5015097;28;20042;-71
2023/10/22 04:40:01;;;;;;;1.93;1.33;;;12.10;99.90;;;;;;5017006;28;20121;-72
2023/10/22 04:42:27;;;;;;;2.83;1.43;;;12.10;99.90;;;;;;5014301;28;20120;-72
2023/10/22 04:44:53;;;;;;;4.15;1.67;;;12.10;99.90;;;;;;5011891;28;20044;-72
2023/10/22 04:47:20;;;;;;;2.13;1.50;;;12.10;99.90;;;;;;5014676;28;20593;-72
2023/10/22 04:49:47;;;;;;;2.70;1.60;;;12.10;99.90;;;;;;5019625;28;20041;-71
2023/10/22 04:52:22;;;;;;;2.20;1.48;;;12.10;99.90;;;;;;5004518;28;20046;-72
2023/10/22 04:54:49;;;;;;;2.63;2.05;;;12.20;99.90;;;;;;5001073;28;20045;-72
2023/10/22 04:57:15;;;;;;;3.20;1.98;;;12.20;99.90;;;;;;5003780;28;20528;-72
2023/10/22 04:59:41;;;;;;;8.93;2.83;;;12.10;99.90;;;;;;5014759;28;20079;-72
2023/10/22 05:02:06;;;;;;;3.87;2.20;;;12.20;99.90;;;;;;5015794;28;20077;-71
2023/10/22 05:04:32;;;;;;;3.60;2.47;;;12.30;99.90;;;;;;5018468;28;20482;-72
2023/10/22 05:06:58;;;;;;;4.00;2.63;;;12.20;99.90;;;;;;5015407;28;20290;-71
2023/10/22 05:09:24;;;;;;;3.28;2.58;;;12.30;99.90;;;;;;5015732;28;20441;-72
2023/10/22 05:11:49;;;;;;;4.45;2.72;;;12.30;99.90;;;;;;5016635;28;20482;-71
2023/10/22 05:14:15;;;;;;;6.43;2.87;;;12.30;99.90;;;;;;5015747;28;20042;-72
2023/10/22 05:16:41;;;;;;;4.33;2.60;;;12.30;99.90;;;;;;5004244;28;20046;-71
2023/10/22 05:19:08;;;;;;;5.35;2.67;;;12.30;99.90;;;;;;5012743;28;20852;-71
2023/10/22 05:21:34;;;;;;;4.00;2.78;;;12.40;99.90;;;;;;5019329;28;20049;-71
2023/10/22 05:23:59;;;;;;;3.65;2.58;;;12.40;99.90;;;;;;5017129;28;20057;-71
2023/10/22 05:26:25;;;;;;;3.43;2.07;;;12.40;99.90;;;;;;5014257;28;20402;-71
2023/10/22 05:28:51;;;;;;;2.50;1.90;;;12.50;99.90;;;;;;5021701;28;20278;-71
2023/10/22 05:31:19;;;;;;;2.50;1.60;;;12.50;99.90;;;;;;5012370;28;20030;-71
2023/10/22 05:33:44;;;;;;;2.25;1.05;;;12.50;99.90;;;;;;5018310;28;20041;-71
2023/10/22 05:36:17;;;;;;;1.70;0.70;;;12.50;99.90;;;;;;5014835;28;20058;-71
2023/10/22 05:38:43;;;;;;;1.45;0.50;;;12.50;99.90;;;;;;5014970;28;20086;-71
2023/10/22 05:41:21;;;;;;;1.67;0.57;;;12.50;99.90;;;;;;5012590;28;20041;-71
2023/10/22 05:43:47;;;;;;;0.45;0.30;;;12.50;99.90;;;;;;5016903;28;20115;-71
2023/10/22 05:46:13;;;;;;;;;;;12.40;99.90;;;;;;5015871;28;20303;-71
2023/10/22 05:48:38;;;;;;;1.25;0.50;;;12.30;99.90;;;;;;5017046;28;20144;-71
2023/10/22 05:51:04;;;;;;;4.57;0.73;;;12.30;99.90;;;;;;5011038;28;20034;-71
2023/10/22 05:53:30;;;;;;;1.80;0.50;;;12.20;99.90;;;;;;5019235;28;20037;-71
2023/10/22 05:55:59;;;;;;;2.33;0.47;;;12.20;99.90;;;;;;5010508;28;20299;-71
2023/10/22 05:58:28;;;;;;;1.55;0.75;;;12.10;99.90;;;;;;4995439;28;20498;-71
2023/10/22 06:00:55;;;;;;;3.40;0.85;;;12.10;99.90;;;;;;4989800;28;20041;-71
2023/10/22 06:03:21;;;;;;;4.68;0.80;;;12.10;99.90;;;;;;5010745;28;20125;-71
2023/10/22 06:05:47;;;;;;;4.82;1.10;;;12.10;99.90;;;;;;5014525;28;20049;-71
2023/10/22 06:08:13;;;;;;;1.45;0.73;;;12.10;99.90;;;;;;5011478;28;20033;-71
2023/10/22 06:10:42;;;;;;;1.00;0.40;;;12.00;99.90;;;;;;5014673;28;20118;-71
2023/10/22 06:13:09;;;;;;;2.28;0.45;;;12.10;99.90;;;;;;5016156;28;20092;-71
2023/10/22 06:15:39;;;;;;;2.45;0.50;;;12.00;99.90;;;;;;5017509;28;20037;-71
2023/10/22 06:18:06;;;;;;;2.88;0.50;;;11.90;99.90;;;;;;5018420;28;20599;-71
2023/10/22 06:20:32;;;;;;;5.03;0.93;;;11.90;99.90;;;;;;5017946;28;20084;-71
2023/10/22 06:22:58;;;;;;;4.95;0.60;;;11.80;99.90;;;;;;5010599;28;20042;-71
2023/10/22 06:25:24;;;;;;;2.97;0.68;;;11.80;99.90;;;;;;5014953;28;20121;-71
2023/10/22 06:27:51;;;;;;;6.63;0.82;;;11.80;99.90;;;;;;5015775;28;20064;-71
2023/10/22 06:30:22;;;;;;;2.42;0.60;;;11.80;99.90;;;;;;5013273;28;20034;-71
2023/10/22 06:32:52;;;;;;;2.80;0.80;;;11.70;99.90;;;;;;5011100;28;20081;-71
2023/10/22 06:35:19;;;;;;;3.47;0.60;;;11.70;99.90;;;;;;5015760;28;20045;-71
2023/10/22 06:37:47;;;;;;;5.10;0.60;;;11.70;99.90;;;;;;5016096;28;20057;-71
2023/10/22 06:40:13;;;;;;;5.47;0.90;;;11.70;99.90;;;;;;5011239;28;20525;-71
2023/10/22 06:42:40;;;;;;;3.13;0.80;;;11.70;99.90;;;;;;4995971;28;20151;-71
2023/10/22 06:45:07;;;;;;;4.80;1.00;;;11.70;99.90;;;;;;5011022;28;20513;-71
2023/10/22 06:47:37;;;;;;;2.92;0.90;;;11.70;99.90;;;;;;5013697;28;20046;-71
2023/10/22 06:50:07;;;;;;;5.15;0.95;;;11.70;99.90;;;;;;4991588;28;20762;-71
2023/10/22 06:52:34;;;;;;;4.95;0.73;;;11.70;99.90;;;;;;5030137;28;20120;-71
2023/10/22 06:54:59;;;;;;;;;;;11.70;99.90;;;;;;5018320;28;20053;-71
2023/10/22 06:57:25;;;;;;;3.25;0.90;;;11.70;99.90;;;;;;4991789;28;19939;-71
2023/10/22 06:59:52;;;;;;;6.10;1.10;;;11.60;99.90;;;;;;5006812;28;20034;-71
2023/10/22 07:02:19;;;;;;;6.28;0.95;;;11.70;99.90;;;;;;5004798;28;20053;-71
2023/10/22 07:04:47;;;;;;;4.78;1.27;;;11.70;99.90;;;;;;5005257;28;20514;-71
2023/10/22 07:07:13;;;;;;;4.45;1.00;;;11.60;99.90;;;;;;5007074;28;20053;-71
2023/10/22 07:09:39;;;;;;;4.03;0.98;;;11.60;99.90;;;;;;5012625;28;20512;-71
2023/10/22 07:12:05;;;;;;;8.73;1.15;;;11.60;99.90;;;;;;4988163;28;20049;-71
2023/10/22 07:14:31;;;;;;;3.72;1.13;;;11.70;99.90;;;;;;5007159;28;20051;-71
2023/10/22 07:16:56;;;;;;;3.47;1.10;;;11.70;99.90;;;;;;5012236;28;20042;-71
2023/10/22 07:19:22;;;;;;;4.80;1.30;;;11.70;99.90;;;;;;5010645;28;20037;-71
2023/10/22 07:21:48;;;;;;;4.45;1.48;;;11.70;99.90;;;;;;5008545;28;20103;-71
2023/10/22 07:24:14;;;;;;;4.80;2.27;;;11.60;99.90;;;;;;5007684;28;20518;-72
2023/10/22 07:26:39;;;;;;;4.27;1.40;;;11.70;99.90;;;;;;5013025;28;20755;-71
2023/10/22 07:29:05;;;;;;;4.47;1.20;;;11.60;99.90;;;;;;5010638;28;20123;-71
2023/10/22 07:31:31;;;;;;;4.68;1.73;;;11.60;99.90;;;;;;5010399;28;20116;-71
2023/10/22 07:33:56;;;;;;;8.03;2.10;;;11.70;99.90;;;;;;5011470;28;20060;-72
2023/10/22 07:36:22;;;;;;;4.00;1.33;;;11.70;99.90;;;;;;5012782;28;20037;-72
2023/10/22 07:38:51;;;;;;;5.80;1.53;;;11.60;99.90;;;;;;5010526;28;20140;-71
2023/10/22 07:41:19;;;;;;;5.18;1.35;;;11.60;99.90;;;;;;5019110;28;20659;-71
2023/10/22 07:43:45;;;;;;;4.68;1.40;;;11.60;99.90;;;;;;5005081;28;20042;-71
2023/10/22 07:46:14;;;;;;;3.60;1.70;;;11.60;99.90;;;;;;5010853;28;20452;-71
2023/10/22 07:48:40;;;;;;;3.42;1.05;;;11.60;99.90;;;;;;5009487;28;20107;-71
2023/10/22 07:51:13;;;;;;;4.90;1.05;;;11.60;99.90;;;;;;5016270;28;20470;-71
2023/10/22 07:53:39;;;;;;;7.60;1.38;;;11.70;99.90;;;;;;5028579;28;20099;-71
2023/10/22 07:56:06;;;;;;;4.78;1.85;;;11.60;99.90;;;;;;5015078;28;20072;-72
2023/10/22 07:58:32;;;;;;;3.80;1.10;;;11.70;99.90;;;;;;5011791;28;20129;-72
2023/10/22 08:00:59;;;;;;;4.38;1.08;;;11.70;99.90;;;;;;5016517;28;20064;-71
2023/10/22 08:03:27;;;;;;;;;;;11.70;99.90;;;;;;5019470;28;20487;-71
2023/10/22 08:05:52;;;;;;;4.45;1.02;;;11.70;99.90;;;;;;5006901;28;20412;-71
2023/10/22 08:08:18;;;;;;;4.37;0.93;;;11.70;99.90;;;;;;5007660;28;20042;-72
2023/10/22 08:10:43;;;;;;;5.83;1.47;;;11.80;99.90;;;;;;5010060;28;20088;-72
2023/10/22 08:13:09;;;;;;;6.17;1.67;;;11.80;99.90;;;;;;5008011;28;20042;-75
2023/10/22 08:15:35;;;;;;;4.83;1.23;;;11.70;99.90;;;;;;5018933;28;20306;-71
2023/10/22 08:18:01;;;;;;;4.03;1.05;;;11.80;99.90;;;;;;5013363;28;20052;-72
2023/10/22 08:20:26;;;;;;;4.33;1.00;;;11.80;99.90;;;;;;5008041;28;20053;-72
2023/10/22 08:22:52;;;;;;;6.00;1.13;;;11.90;99.90;;;;;;5000472;28;20660;-72
2023/10/22 08:25:17;;;;;;;3.87;1.00;;;11.90;99.90;;;;;;5014708;28;20052;-71
2023/10/22 08:27:45;;;;;;;5.57;1.10;;;11.90;99.90;;;;;;5012770;28;20042;-71
2023/10/22 08:30:12;;;;;;;3.70;1.10;;;11.90;99.90;;;;;;5018676;28;20068;-72
2023/10/22 08:32:43;;;;;;;4.22;1.13;;;12.00;99.90;;;;;;5007206;28;20540;-72
2023/10/22 08:35:11;;;;;;;2.08;0.95;;;12.00;99.90;;;;;;5009408;28;20057;-72
2023/10/22 08:37:38;;;;;;;3.40;0.80;;;12.00;99.90;;;;;;5009926;28;20046;-72
2023/10/22 08:40:11;;;;;;;2.40;0.77;;;12.00;99.90;;;;;;5013606;28;20053;-70
2023/10/22 08:42:37;;;;;;;5.95;0.82;;;12.00;99.90;;;;;;5021760;28;20069;-71
2023/10/22 08:45:05;;;;;;;3.28;1.17;;;12.10;99.90;;;;;;5016158;28;20049;-70
2023/10/22 08:47:33;;;;;;;2.35;1.00;;;12.10;99.90;;;;;;5011128;28;20042;-70
2023/10/22 08:50:01;;;;;;;1.23;0.50;;;12.10;99.90;;;;;;5013461;28;20419;-71
2023/10/22 08:52:27;;;;;;;1.60;0.70;;;12.20;99.90;;;;;;5011440;28;20457;-71
2023/10/22 08:54:53;;;;;;;;;;;12.20;99.90;;;;;;5009060;28;20045;-70
2023/10/22 08:57:21;;;;;;;2.53;0.77;;;12.10;99.90;;;;;;5013298;28;19921;-71
2023/10/22 08:59:47;;;;;;;9.77;1.50;;;12.20;99.90;;;;;;4996036;28;20125;-71
2023/10/22 09:02:15;;;;;;;;;;;12.20;99.90;;;;;;5009786;28;20284;-71
2023/10/22 09:04:43;;;;;;;3.90;0.65;;;12.30;99.90;;;;;;5014056;28;20429;-71
2023/10/22 09:07:09;;;;;;;1.52;0.60;;;12.30;99.90;;;;;;5016786;28;20446;-71
2023/10/22 09:09:37;;;;;;;2.55;1.23;;;12.40;99.90;;;;;;5018095;28;20045;-71
2023/10/22 09:12:13;;;;;;;2.40;0.65;;;12.40;99.90;;;;;;5004576;28;20054;-71
2023/10/22 09:14:44;;;;;;;3.30;0.80;;;12.40;99.90;;;;;;5010639;28;20053;-71
2023/10/22 09:17:19;;;;;;;4.63;0.75;;;12.50;99.90;;;;;;5015261;28;20129;-71
2023/10/22 09:19:47;;;;;;;0.73;0.35;;;12.60;99.90;;;;;;5020242;28;20037;-71
2023/10/22 09:22:24;;;;;;;1.17;0.60;;;12.50;99.90;;;;;;5006764;28;20041;-71
2023/10/22 09:24:56;;;;;;;1.00;0.47;;;12.50;99.90;;;;;;5011876;28;20057;-71
2023/10/22 09:27:26;;;;;;;1.00;0.73;;;12.50;99.90;;;;;;5015157;28;20041;-71
2023/10/22 09:29:53;;;;;;;3.33;0.45;;;12.50;99.90;;;;;;4997811;28;20081;-71
2023/10/22 09:32:19;;;;;;;1.30;0.45;;;12.60;99.90;;;;;;4999317;28;20095;-71
2023/10/22 09:34:45;;;;;;;2.40;0.50;;;12.60;99.90;;;;;;5002117;28;20238;-71
2023/10/22 09:37:11;;;;;;;2.53;0.47;;;12.70;99.90;;;;;;5014525;28;20630;-71
2023/10/22 09:39:38;;;;;;;0.90;0.43;;;12.70;99.90;;;;;;5014129;28;20042;-71
2023/10/22 09:42:06;;;;;;;4.47;0.82;;;12.70;99.90;;;;;;5012964;28;20326;-71
2023/10/22 09:44:37;;;;;;;1.30;0.32;;;12.60;99.90;;;;;;5013260;28;20116;-71
2023/10/22 09:47:06;;;;;;;1.52;0.60;;;12.80;99.90;;;;;;5018282;28;20053;-71
2023/10/22 09:49:34;;;;;;;1.55;0.50;;;12.70;99.90;;;;;;5012432;28;20621;-72
2023/10/22 09:52:02;;;;;;;3.70;0.60;;;12.90;99.90;;;;;;5008419;28;20140;-71
2023/10/22 09:54:39;;;;;;;1.67;0.55;;;12.90;99.90;;;;;;5004594;28;20054;-71
2023/10/22 09:57:15;;;;;;;1.40;0.60;;;12.90;99.90;;;;;;5007166;28;20046;-71
2023/10/22 09:59:42;;;;;;;2.22;0.45;;;12.80;99.90;;;;;;5006279;28;20509;-71
2023/10/22 10:02:13;;;;;;;2.40;0.57;;;12.70;99.90;;;;;;5010381;28;20038;-71
2023/10/22 10:04:43;;;;;;;0.95;0.38;;;12.70;99.90;;;;;;5007149;28;20057;-71
2023/10/22 10:07:09;;;;;;;2.72;0.60;;;12.70;99.90;;;;;;5010112;28;20056;-72
2023/10/22 10:09:38;;;;;;;3.50;0.55;;;12.70;99.90;;;;;;5010219;28;20060;-71
2023/10/22 10:12:06;;;;;;;1.15;0.52;;;12.70;99.90;;;;;;4998828;28;20425;-71
2023/10/22 10:14:42;;;;;;;2.53;0.50;;;12.70;99.90;;;;;;5009039;28;20513;-71
2023/10/22 10:17:09;;;;;;;3.78;0.47;;;12.80;99.90;;;;;;5000060;28;20402;-71
2023/10/22 10:19:35;;;;;;;3.50;0.35;;;12.90;99.90;;;;;;4984505;28;20049;-72
2023/10/22 10:22:04;;;;;;;3.72;0.47;;;12.80;99.90;;;;;;5007133;28;20457;-72
2023/10/22 10:24:31;;;;;;;2.80;0.55;;;12.80;99.90;;;;;;5009821;28;20052;-71
2023/10/22 10:26:57;;;;;;;1.92;0.45;;;12.90;99.90;;;;;;5008969;28;20458;-72
2023/10/22 10:29:32;;;;;;;2.90;0.45;;;13.00;99.90;;;;;;5005226;28;20052;-71
2023/10/22 10:32:13;;;;;;;1.92;0.43;;;13.10;99.90;;;;;;5016817;28;20045;-71
2023/10/22 10:34:43;;;;;;;3.95;1.08;;;13.10;99.90;;;;;;4999136;28;20343;-71
2023/10/22 10:37:10;;;;;;;1.67;0.60;;;13.10;99.90;;;;;;5009912;28;20511;-72
2023/10/22 10:39:43;;;;;;;4.70;0.77;;;13.10;99.90;;;;;;5008422;28;20326;-71
2023/10/22 10:42:10;;;;;;;1.75;0.40;;;13.10;99.90;;;;;;5011497;28;20193;-71
2023/10/22 10:44:54;;;;;;;3.40;0.47;;;13.10;99.90;;;;;;5011405;28;20069;-71
2023/10/22 10:47:27;;;;;;;2.05;0.47;;;13.10;99.90;;;;;;4986262;28;20042;-72
2023/10/22 10:50:05;;;;;;;0.65;0.20;;;13.10;99.90;;;;;;5000993;28;20430;-71
2023/10/22 10:52:32;;;;;;;3.20;0.47;;;13.20;99.90;;;;;;4990927;28;20596;-71
2023/10/22 10:55:20;;;;;;;2.85;0.30;;;13.10;99.90;;;;;;5011658;28;20033;-72
2023/10/22 10:57:53;;;;;;;3.30;0.50;;;13.20;99.90;;;;;;5007983;28;20054;-71
2023/10/22 11:00:30;;;;;;;0.95;0.35;;;13.20;99.90;;;;;;5008714;28;20034;-71
2023/10/22 11:03:02;;;;;;;1.27;0.40;;;13.30;99.90;;;;;;5003361;28;20046;-71
2023/10/22 11:05:39;;;;;;;3.15;0.32;;;13.30;99.90;;;;;;5008527;28;20045;-71
2023/10/22 11:08:22;;;;;;;1.67;0.88;;;13.40;99.90;;;;;;5010964;28;20505;-71
2023/10/22 11:10:50;;;;;;;1.23;0.30;;;13.50;99.90;;;;;;5013691;28;20521;-71
2023/10/22 11:13:25;;;;;;;1.70;0.55;;;13.60;99.90;;;;;;5015748;28;20360;-71
2023/10/22 11:16:03;;;;;;;2.55;0.30;;;13.60;99.90;;;;;;5009985;28;20045;-72
2023/10/22 11:18:29;;;;;;;1.10;0.40;;;13.60;99.90;;;;;;5009108;28;20041;-71
2023/10/22 11:21:00;;;;;;;0.57;0.20;;;13.60;99.90;;;;;;5010493;28;20147;-72
2023/10/22 11:23:26;;;;;;;2.47;0.17;;;13.60;99.90;;;;;;5004977;28;20909;-71
2023/10/22 11:25:51;;;;;;;1.52;0.40;;;13.70;99.90;;;;;;5001182;28;20075;-71
2023/10/22 11:28:18;;;;;;;3.00;0.30;;;13.80;99.90;;;;;;5006265;28;20152;-71
2023/10/22 11:30:44;;;;;;;0.52;0.30;;;13.80;99.90;;;;;;5007036;28;20337;-71
2023/10/22 11:33:25;;;;;;;0.80;0.20;;;13.90;99.90;;;;;;5004393;28;20045;-71
2023/10/22 11:35:53;;;;;;;1.33;0.50;;;14.00;99.90;;;;;;5007494;28;20037;-71
2023/10/22 11:38:22;;;;;;;0.55;0.20;;;14.00;99.90;;;;;;5003319;28;20211;-71
2023/10/22 11:41:00;;;;;;;1.95;0.28;;;14.00;99.90;;;;;;5008281;28;20068;-71
2023/10/22 11:43:27;;;;;;;1.10;0.10;;;14.00;99.90;;;;;;5000849;28;20104;-71
2023/10/22 11:45:54;;;;;;;2.47;0.17;;;14.00;99.90;;;;;;5005016;28;20057;-71
2023/10/22 11:48:23;;;;;;;0.68;0.25;;;14.10;99.90;;;;;;4975653;28;20254;-71
2023/10/22 11:51:00;;;;;;;1.17;0.35;;;14.10;99.90;;;;;;5011364;28;20060;-71
2023/10/22 11:53:42;;;;;;;0.70;0.20;;;14.10;99.90;;;;;;4983377;28;20038;-71
2023/10/22 11:56:09;;;;;;;0.73;0.30;;;14.20;99.90;;;;;;5010660;28;20049;-71
2023/10/22 11:58:34;;;;;;;1.00;0.20;;;14.20;99.90;;;;;;5000636;28;20390;-71
2023/10/22 12:01:02;;;;;;;1.45;0.50;;;14.30;99.90;;;;;;5001058;28;20054;-71
2023/10/22 12:03:28;;;;;;;1.48;0.20;;;14.40;99.90;;;;;;5005348;28;20667;-71
2023/10/22 12:05:54;;;;;;;2.00;0.22;;;14.40;99.90;;;;;;5006912;28;20059;-71
2023/10/22 12:08:22;;;;;;;3.42;0.40;;;14.50;99.90;;;;;;5007204;28;20049;-71
2023/10/22 12:10:51;;;;;;;0.65;0.13;;;14.50;99.90;;;;;;4992743;28;20042;-71
2023/10/22 12:13:16;;;;;;;0.25;0.10;;;14.60;99.90;;;;;;5002928;28;20113;-72
2023/10/22 12:15:42;;;;;;;1.45;0.30;;;14.70;99.90;;;;;;5005880;28;20073;-71
2023/10/22 12:18:09;;;;;;;2.35;0.60;;;14.70;99.90;;;;;;4986344;28;20127;-71
2023/10/22 12:20:35;;;;;;;1.23;0.20;;;14.70;99.90;;;;;;5008035;28;20572;-71
2023/10/22 12:23:00;;;;;;;1.27;0.30;;;14.80;99.90;;;;;;5008625;28;20045;-71
2023/10/22 12:25:30;;;;;;;1.17;0.40;;;14.90;99.90;;;;;;4999468;28;20104;-71
2023/10/22 12:27:56;;;;;;;1.23;0.20;;;15.00;99.90;;;;;;5005875;28;20061;-71
2023/10/22 12:30:22;;;;;;;4.00;0.30;;;15.00;99.90;;;;;;5012948;28;20036;-72
2023/10/22 12:32:47;;;;;;;2.15;0.70;;;15.00;99.90;;;;;;5016964;28;20405;-72
2023/10/22 12:35:13;;;;;;;3.57;0.70;;;14.90;99.90;;;;;;5017176;28;20568;-72
2023/10/22 12:37:39;;;;;;;1.45;0.77;;;14.80;99.90;;;;;;5010324;28;20607;-72
2023/10/22 12:40:06;;;;;;;2.75;0.50;;;14.80;99.90;;;;;;5020233;28;20046;-71
2023/10/22 12:42:41;;;;;;;1.55;0.40;;;14.80;99.90;;;;;;5009876;28;20171;-72
2023/10/22 12:45:10;;;;;;;1.08;0.40;;;14.90;99.90;;;;;;5017537;28;20041;-72
2023/10/22 12:47:39;;;;;;;0.85;0.20;;;14.90;99.90;;;;;;5011920;28;20048;-71
2023/10/22 12:50:08;;;;;;;1.25;0.40;;;14.70;99.90;;;;;;5011292;28;20395;-71